Manzano Base, New Mexico
Current Conditions -  °F | °C
As of 1:52 AM on Thursday 23 Oct 2014 (Local Time) from KABQ Reporting Station
Clear Clear  
Wind Chill: 56°   Ceiling: Unl
Heat Index: 56°   Visibility: 10mi
Dew Point: 44°   Wind: 7mph
Humidity: 64%   Direction: 120°ESE
Pressure: 30.21"   Gusts: NA
Location:  34.9818°N, 106.515°W
Report Text: KABQ 230752Z 12006KT 10SM CLR 13/07 A3021 RMK AO2 SLP170 T01330067
Loading
Personal Weather Stations






























Interactive Weather Map
Tropical Storm Tracking
New forecast layout! Learn more

10-Day Weather Forecast

Advertisements
Track Severe Weather on mobile